Flight Track Log - Related Links

Times and Time Zones

All times are in EDT time to prevent confusion due to time zone crossing. See the SWA3571 flight status page for this flight to view local times or setup timezone preferences in your user account.

Time Position Orientation Groundspeed Altitude Reporting Facility
EDT Latitude Longitude Course Direction KTS MPH feet Rate Location/Type
Thu 01:22:09 PM 39.8333 -104.7833 270° West 216 249 7,100  Level Denver TRACON
Thu 01:23:04 PM 39.8333 -104.8667 270° West 264 304 9,400 1,878 Climbing Denver TRACON
Thu 01:24:04 PM 39.8333 -104.9667 270° West 322 371 10,700 1,937 Climbing Denver TRACON
Thu 01:25:11 PM 39.8169 -105.1072 261° West 352 405 13,500 2,419 Climbing Denver Center
Thu 01:26:13 PM 39.7867 -105.2453 254° West 369 425 15,900 2,226 Climbing Denver Center
Thu 01:27:15 PM 39.7572 -105.3814 254° West 389 448 18,100 2,613 Climbing Denver Center
Thu 01:28:17 PM 39.7281 -105.5250 255° West 382 440 21,300 2,177 Climbing Denver Center
Thu 01:29:19 PM 39.7003 -105.6567 255° West 381 438 22,600 1,210 Climbing Denver Center
Thu 01:30:21 PM 39.6847 -105.8069 262° West 419 482 23,800 1,113 Climbing Denver Center
Thu 01:31:23 PM 39.6658 -105.9503 260° West 431 496 24,900 1,306 Climbing Denver Center
Thu 01:32:25 PM 39.6475 -106.1117 262° West 449 517 26,500 1,548 Climbing Denver Center
Thu 01:33:27 PM 39.6253 -106.3083 262° West 458 527 28,100 1,645 Climbing Denver Center
Thu 01:34:29 PM 39.5786 -106.4631 249° West 459 528 29,900 1,597 Climbing Denver Center
Thu 01:35:31 PM 39.5322 -106.6069 247° West 452 520 31,400 1,008 Climbing Denver Center
Thu 01:36:34 PM 39.4778 -106.7753 247° West 452 520 32,000 288 Climbing Denver Center
Thu 01:37:36 PM 39.4308 -106.9203 247° West 455 524 32,000  Level Denver Center
Thu 01:38:38 PM 39.3889 -107.0969 253° West 460 529 32,000  Level Denver Center
Thu 01:39:40 PM 39.3503 -107.2489 252° West 463 533 32,000 48 Level Denver Center
Thu 01:40:42 PM 39.3053 -107.4244 252° West 461 531 32,100 726 Climbing Denver Center
Thu 01:41:44 PM 39.2597 -107.5736 249° West 463 533 33,500 1,258 Climbing Denver Center
Thu 01:42:46 PM 39.2075 -107.7425 248° West 456 525 34,700 968 Climbing Denver Center
Thu 01:43:48 PM 39.1625 -107.8872 248° West 454 522 35,500 629 Climbing Denver Center
Thu 01:44:50 PM 39.1186 -108.0328 249° West 451 519 36,000 221 Climbing Denver Center
Thu 01:46:04 PM 39.0583 -108.2256 248° West 453 521 36,000  Level Denver Center
Thu 01:47:06 PM 39.0047 -108.3944 248° West 454 522 36,000  Level Denver Center
Thu 01:48:08 PM 38.9594 -108.5403 248° West 457 526 36,000  Level Denver Center
Thu 01:49:11 PM 38.9064 -108.7078 248° West 454 522 36,000  Level Denver Center
Thu 01:50:25 PM 38.8603 -108.8519 248° West 453 521 36,000  Level Denver Center
Thu 01:51:27 PM 38.7989 -109.0450 248° West 456 525 36,000  Level Denver Center
Thu 01:52:29 PM 38.7522 -109.1889 247° West 455 524 36,000  Level Denver Center
Thu 01:53:31 PM 38.6986 -109.3575 248° West 456 525 36,000  Level Denver Center
Thu 01:54:33 PM 38.6517 -109.5011 247° West 457 526 36,000  Level Denver Center
Thu 01:55:35 PM 38.5956 -109.6661 247° West 452 520 36,000  Level Denver Center
Thu 01:56:37 PM 38.5486 -109.8117 248° West 460 529 36,000  Level Denver Center
Thu 01:57:39 PM 38.5017 -109.9542 247° West 456 525 36,000  Level Denver Center
Thu 01:58:41 PM 38.4456 -110.1208 247° West 458 527 36,000  Level Denver Center
Thu 01:59:43 PM 38.3981 -110.2642 247° West 459 528 36,000 -96 Level Denver Center
Thu 02:00:46 PM 38.3403 -110.4303 246° West 459 528 35,800 -576 Descending Denver Center
Thu 02:01:48 PM 38.2786 -110.5617 239° Southwest 451 519 34,800 -1,016 Descending Denver Center
Thu 02:02:50 PM 38.2086 -110.7158 240° Southwest 450 518 33,700 -968 Descending Denver Center
Thu 02:03:52 PM 38.1467 -110.8472 239° Southwest 451 519 32,800 -823 Descending Denver Center
Thu 02:04:54 PM 38.0792 -110.9936 240° Southwest 453 521 32,000 -384 Descending Denver Center
Thu 02:05:57 PM 38.0153 -111.1303 239° Southwest 451 519 32,000  Level Denver Center
Thu 02:06:59 PM 37.9511 -111.2692 240° Southwest 456 525 32,000  Level Denver Center
Thu 02:08:12 PM 37.8731 -111.4397 240° Southwest 464 534 32,000  Level Salt Lake Center
Thu 02:09:14 PM 37.7933 -111.6092 239° Southwest 467 537 32,000  Level Salt Lake Center
Thu 02:10:16 PM 37.7244 -111.7528 239° Southwest 474 545 32,000  Level Salt Lake Center
Thu 02:11:18 PM 37.6558 -111.8958 239° Southwest 476 548 32,000  Level Salt Lake Center
Thu 02:12:20 PM 37.5869 -112.0403 239° Southwest 479 551 32,000  Level Salt Lake Center
Thu 02:13:09 PM 37.5300 -112.1542 238° Southwest 476 548 32,000  Level Los Angeles Center
Thu 02:14:11 PM 37.4619 -112.2969 239° Southwest 473 544 32,000 -387 Level Los Angeles Center
Thu 02:15:13 PM 37.3922 -112.4408 239° Southwest 477 549 31,200 -960 Descending Los Angeles Center
Thu 02:16:16 PM 37.3081 -112.6128 238° Southwest 476 548 30,000 -1,015 Descending Los Angeles Center
Thu 02:17:29 PM 37.2239 -112.7850 238° Southwest 478 550 28,900 -889 Descending Salt Lake Center
Thu 02:18:31 PM 37.1556 -112.9225 238° Southwest 467 537 28,000 -478 Descending Salt Lake Center
Thu 02:19:22 PM 37.1017 -113.0303 238° Southwest 458 527 28,000  Level Los Angeles Center
Thu 02:20:24 PM 37.0328 -113.1706 238° Southwest 470 541 28,000  Level Los Angeles Center
Thu 02:21:26 PM 36.9606 -113.3142 238° Southwest 482 555 28,000  Level Los Angeles Center
Thu 02:22:28 PM 36.8883 -113.4594 238° Southwest 489 563 28,000 -581 Level Los Angeles Center
Thu 02:23:30 PM 36.8017 -113.6317 238° Southwest 489 563 26,800 -1,694 Descending Los Angeles Center
Thu 02:24:32 PM 36.7339 -113.7689 238° Southwest 473 544 24,500 -2,352 Descending Los Angeles Center
Thu 02:25:35 PM 36.6683 -113.9000 238° Southwest 451 519 21,900 -2,400 Descending Los Angeles Center
Thu 02:26:37 PM 36.6056 -114.0258 238° Southwest 432 497 19,500 -2,274 Descending Los Angeles Center
Thu 02:27:39 PM 36.5458 -114.1467 238° Southwest 415 478 17,200 -2,508 Descending Los Angeles Center
Thu 02:28:39 PM 36.4886 -114.2842 243° Southwest 403 464 14,400 -2,625 Descending Los Angeles Center
Thu 02:29:15 PM 36.4542 -114.3525 238° Southwest 381 438 13,000 -1,781 Descending Los Angeles Center
Thu 02:29:43 PM 36.4331 -114.3958 239° Southwest 380 437 12,500 -984 Descending Los Angeles Center
Thu 02:30:16 PM 36.4081 -114.4564 243° Southwest 349 402 12,000 -484 Descending Los Angeles Center
Thu 02:30:45 PM 36.3794 -114.4819 216° Southwest 328 377 12,000 -984 Level Los Angeles Center
Thu 02:31:17 PM 36.3325 -114.4956 193° South 302 348 11,000 -1,645 Descending Los Angeles Center
Thu 02:31:47 PM 36.2992 -114.5031 190° South 293 337 10,300 -1,672 Descending Los Angeles Center
Thu 02:32:18 PM 36.2528 -114.5172 194° South 294 338 9,300 -1,645 Descending Los Angeles Center
Thu 02:32:49 PM 36.2200 -114.5256 192° South 291 335 8,600 -1,279 Descending Los Angeles Center
Thu 02:33:19 PM 36.1817 -114.5575 214° Southwest 284 327 8,000 -581 Descending Los Angeles Center
Thu 02:33:51 PM 36.1550 -114.5736 206° Southwest 275 316 8,000  Level Los Angeles Center
Thu 02:34:19 PM 36.1283 -114.6181 233° Southwest 250 288 8,000  Level Los Angeles Center
Thu 02:34:53 PM 36.1100 -114.6539 238° Southwest 249 287 8,000  Level Los Angeles Center
Thu 02:35:20 PM 36.0925 -114.6914 240° Southwest 248 285 8,000  Level Los Angeles Center
Thu 02:35:56 PM 36.0747 -114.7278 239° Southwest 248 285 8,000  Level Los Angeles Center
Thu 02:36:21 PM 36.0747 -114.7667 270° West 244 281 8,000 -581 Level Los Angeles Center
Thu 02:36:58 PM 36.0742 -114.8089 269° West 243 280 7,400 -1,452 Descending Los Angeles Center
Thu 02:37:23 PM 36.0733 -114.8497 269° West 234 269 6,500 -1,161 Descending Los Angeles Center
Thu 02:38:00 PM 36.0747 -114.8908 272° West 238 274 6,200 -900 Descending Los Angeles Center
Thu 02:38:23 PM 36.0725 -114.9244 265° West 210 242 5,600 -1,452 Descending Los Angeles Center
Thu 02:39:02 PM 36.0739 -114.9628 273° West 227 261 4,700 -1,475 Descending Los Angeles Center
Thu 02:39:24 PM 36.0736 -114.9986 269° West 197 227 4,100 -968 Descending Los Angeles Center
Thu 02:40:04 PM 36.0744 -115.0281 272° West 209 241 3,700 -984 Descending Los Angeles Center
Thu 02:40:25 PM 36.0747 -115.0622 271° West 184 212 3,100 -1,065 Descending Los Angeles Center
Thu 02:41:06 PM 36.0736 -115.0972 268° West 187 215 2,600 -787 Descending Los Angeles Center
Thu 02:41:26 PM 36.0733 -115.1158 269° West 161 185 2,300 -484 Descending Los Angeles Center
Thu 02:42:08 PM 36.0736 -115.1469 271° West 165 190 2,100 -286 Descending Los Angeles Center

Login

Don't have an account? Register now (free) for customized features, flight alerts, and more!